sensor_id;sensor_type;location;lat;lon;timestamp;pressure;altitude;pressure_sealevel;temperature;humidity
66385;BME280;53426;55.872;37.462;2024-03-02T00:07:14;100363.47;;;4.28;68.01
66385;BME280;53426;55.872;37.462;2024-03-02T00:09:41;100469.13;;;4.87;67.97
66385;BME280;53426;55.872;37.462;2024-03-02T00:12:11;100398.72;;;4.59;68.60
66385;BME280;53426;55.872;37.462;2024-03-02T00:14:41;100438.44;;;4.89;68.49
66385;BME280;53426;55.872;37.462;2024-03-02T00:17:21;100426.31;;;4.87;68.08
66385;BME280;53426;55.872;37.462;2024-03-02T00:19:50;100402.81;;;4.65;67.98
66385;BME280;53426;55.872;37.462;2024-03-02T00:22:16;100453.75;;;4.98;68.28
66385;BME280;53426;55.872;37.462;2024-03-02T00:24:42;100434.97;;;4.89;68.51
66385;BME280;53426;55.872;37.462;2024-03-02T00:27:12;100412.81;;;4.76;68.00
66385;BME280;53426;55.872;37.462;2024-03-02T00:29:40;100387.84;;;4.48;67.68
66385;BME280;53426;55.872;37.462;2024-03-02T00:32:12;100463.25;;;4.82;67.85
66385;BME280;53426;55.872;37.462;2024-03-02T00:34:39;100366.56;;;4.17;68.77
66385;BME280;53426;55.872;37.462;2024-03-02T00:37:06;100363.03;;;4.18;69.36
66385;BME280;53426;55.872;37.462;2024-03-02T00:39:32;100423.09;;;4.61;68.44
66385;BME280;53426;55.872;37.462;2024-03-02T00:42:01;100412.94;;;4.35;68.15
66385;BME280;53426;55.872;37.462;2024-03-02T00:44:27;100462.03;;;4.52;68.89
66385;BME280;53426;55.872;37.462;2024-03-02T00:46:56;100464.06;;;4.45;69.79
66385;BME280;53426;55.872;37.462;2024-03-02T00:49:34;100377.75;;;4.02;69.99
66385;BME280;53426;55.872;37.462;2024-03-02T00:52:00;100412.47;;;4.26;69.04
66385;BME280;53426;55.872;37.462;2024-03-02T00:54:26;100462.34;;;4.44;69.68
66385;BME280;53426;55.872;37.462;2024-03-02T00:56:54;100457.09;;;4.44;69.28
66385;BME280;53426;55.872;37.462;2024-03-02T00:59:25;100386.38;;;4.04;69.80
66385;BME280;53426;55.872;37.462;2024-03-02T01:01:51;100389.78;;;4.06;69.04
66385;BME280;53426;55.872;37.462;2024-03-02T01:04:17;100467.97;;;4.55;69.06
66385;BME280;53426;55.872;37.462;2024-03-02T01:06:43;100462.78;;;4.54;68.85
66385;BME280;53426;55.872;37.462;2024-03-02T01:09:09;100478.63;;;4.52;69.16
66385;BME280;53426;55.872;37.462;2024-03-02T01:11:35;100470.06;;;4.47;69.70
66385;BME280;53426;55.872;37.462;2024-03-02T01:14:01;100478.09;;;4.44;69.61
66385;BME280;53426;55.872;37.462;2024-03-02T01:16:27;100334.53;;;3.51;69.11
66385;BME280;53426;55.872;37.462;2024-03-02T01:18:53;100398.53;;;3.86;69.30
66385;BME280;53426;55.872;37.462;2024-03-02T01:21:19;100418.09;;;3.98;68.68
66385;BME280;53426;55.872;37.462;2024-03-02T01:23:45;100417.69;;;4.07;69.18
66385;BME280;53426;55.872;37.462;2024-03-02T01:26:11;100479.72;;;4.47;69.04
66385;BME280;53426;55.872;37.462;2024-03-02T01:28:37;100485.88;;;4.46;68.97
66385;BME280;53426;55.872;37.462;2024-03-02T01:31:03;100385.72;;;3.78;68.89
66385;BME280;53426;55.872;37.462;2024-03-02T01:33:29;100315.03;;;3.38;68.87
66385;BME280;53426;55.872;37.462;2024-03-02T01:35:55;100387.28;;;3.83;68.58
66385;BME280;53426;55.872;37.462;2024-03-02T01:38:21;100471.81;;;4.28;68.90
66385;BME280;53426;55.872;37.462;2024-03-02T01:40:47;100441.47;;;4.02;69.21
66385;BME280;53426;55.872;37.462;2024-03-02T01:43:13;100318.94;;;3.28;69.41
66385;BME280;53426;55.872;37.462;2024-03-02T01:45:40;100411.88;;;3.80;69.10
66385;BME280;53426;55.872;37.462;2024-03-02T01:48:07;100445.94;;;4.00;69.55
66385;BME280;53426;55.872;37.462;2024-03-02T01:50:33;100442.34;;;4.03;69.70
66385;BME280;53426;55.872;37.462;2024-03-02T01:53:00;100438.34;;;4.14;69.28
66385;BME280;53426;55.872;37.462;2024-03-02T01:55:26;100469.41;;;4.42;69.29
66385;BME280;53426;55.872;37.462;2024-03-02T01:57:54;100397.00;;;4.01;68.98
66385;BME280;53426;55.872;37.462;2024-03-02T02:00:21;100475.31;;;4.47;68.75
66385;BME280;53426;55.872;37.462;2024-03-02T02:02:50;100468.66;;;4.40;68.91
66385;BME280;53426;55.872;37.462;2024-03-02T02:05:17;100483.47;;;4.41;68.37
66385;BME280;53426;55.872;37.462;2024-03-02T02:07:43;100473.63;;;4.46;69.28
66385;BME280;53426;55.872;37.462;2024-03-02T02:10:12;100479.63;;;4.48;68.82
66385;BME280;53426;55.872;37.462;2024-03-02T02:12:39;100455.13;;;4.49;68.27
66385;BME280;53426;55.872;37.462;2024-03-02T02:17:51;100376.56;;;4.09;68.42
66385;BME280;53426;55.872;37.462;2024-03-02T02:20:17;100326.03;;;3.87;67.79
66385;BME280;53426;55.872;37.462;2024-03-02T02:23:13;100455.66;;;4.57;67.98
66385;BME280;53426;55.872;37.462;2024-03-02T02:25:39;100394.16;;;4.05;67.80
66385;BME280;53426;55.872;37.462;2024-03-02T02:28:05;100476.47;;;4.42;69.21
66385;BME280;53426;55.872;37.462;2024-03-02T02:30:32;100420.81;;;4.15;68.82
66385;BME280;53426;55.872;37.462;2024-03-02T02:32:59;100405.66;;;4.03;68.96
66385;BME280;53426;55.872;37.462;2024-03-02T02:35:25;100484.97;;;4.47;69.09
66385;BME280;53426;55.872;37.462;2024-03-02T02:37:55;100497.28;;;4.45;69.03
66385;BME280;53426;55.872;37.462;2024-03-02T02:40:21;100358.44;;;3.64;69.04
66385;BME280;53426;55.872;37.462;2024-03-02T02:42:47;100489.75;;;4.37;68.79
66385;BME280;53426;55.872;37.462;2024-03-02T02:45:14;100496.50;;;4.43;69.00
66385;BME280;53426;55.872;37.462;2024-03-02T02:47:44;100464.66;;;4.32;69.37
66385;BME280;53426;55.872;37.462;2024-03-02T02:50:11;100488.25;;;4.52;69.05
66385;BME280;53426;55.872;37.462;2024-03-02T02:52:39;100467.34;;;4.30;68.47
66385;BME280;53426;55.872;37.462;2024-03-02T02:55:10;100375.66;;;3.69;69.03
66385;BME280;53426;55.872;37.462;2024-03-02T02:57:38;100498.72;;;4.32;69.21
66385;BME280;53426;55.872;37.462;2024-03-02T03:03:01;100357.03;;;3.35;69.08
66385;BME280;53426;55.872;37.462;2024-03-02T03:05:28;100489.75;;;4.17;69.88
66385;BME280;53426;55.872;37.462;2024-03-02T03:07:54;100486.03;;;4.22;70.30
66385;BME280;53426;55.872;37.462;2024-03-02T03:10:20;100485.81;;;4.27;69.97
66385;BME280;53426;55.872;37.462;2024-03-02T03:12:50;100463.59;;;4.15;69.47
66385;BME280;53426;55.872;37.462;2024-03-02T03:15:16;100430.81;;;3.87;69.50
66385;BME280;53426;55.872;37.462;2024-03-02T03:17:42;100428.19;;;3.87;69.48
66385;BME280;53426;55.872;37.462;2024-03-02T03:20:09;100343.28;;;3.30;69.26
66385;BME280;53426;55.872;37.462;2024-03-02T03:25:33;100455.53;;;3.79;69.78
66385;BME280;53426;55.872;37.462;2024-03-02T03:27:59;100425.16;;;3.75;69.01
66385;BME280;53426;55.872;37.462;2024-03-02T03:30:25;100428.91;;;3.70;69.07
66385;BME280;53426;55.872;37.462;2024-03-02T03:32:51;100331.66;;;3.37;69.17
66385;BME280;53426;55.872;37.462;2024-03-02T03:35:19;100363.72;;;3.62;68.85
66385;BME280;53426;55.872;37.462;2024-03-02T03:37:49;100482.56;;;4.22;69.20
66385;BME280;53426;55.872;37.462;2024-03-02T03:40:18;100254.16;;;2.92;68.93
66385;BME280;53426;55.872;37.462;2024-03-02T03:42:44;100438.13;;;3.99;68.33
66385;BME280;53426;55.872;37.462;2024-03-02T03:45:10;100440.47;;;4.05;68.91
66385;BME280;53426;55.872;37.462;2024-03-02T03:47:36;100389.81;;;3.65;68.41
66385;BME280;53426;55.872;37.462;2024-03-02T03:50:02;100482.91;;;4.14;68.96
66385;BME280;53426;55.872;37.462;2024-03-02T03:52:33;100360.13;;;3.45;68.70
66385;BME280;53426;55.872;37.462;2024-03-02T03:55:00;100438.13;;;3.99;68.58
66385;BME280;53426;55.872;37.462;2024-03-02T03:57:27;100311.34;;;3.22;68.37
66385;BME280;53426;55.872;37.462;2024-03-02T03:59:53;100313.78;;;3.26;68.54
66385;BME280;53426;55.872;37.462;2024-03-02T04:02:19;100469.97;;;4.10;68.51
66385;BME280;53426;55.872;37.462;2024-03-02T04:04:45;100476.91;;;4.11;68.79
66385;BME280;53426;55.872;37.462;2024-03-02T04:07:42;100475.84;;;4.15;68.58
66385;BME280;53426;55.872;37.462;2024-03-02T04:10:27;100437.00;;;3.64;69.25
66385;BME280;53426;55.872;37.462;2024-03-02T04:12:53;100472.78;;;4.05;69.27
66385;BME280;53426;55.872;37.462;2024-03-02T04:15:19;100401.00;;;3.69;69.15
66385;BME280;53426;55.872;37.462;2024-03-02T04:17:45;100498.72;;;4.32;69.16
66385;BME280;53426;55.872;37.462;2024-03-02T04:20:23;100370.88;;;3.59;68.44
66385;BME280;53426;55.872;37.462;2024-03-02T04:23:15;100483.38;;;4.43;68.13
66385;BME280;53426;55.872;37.462;2024-03-02T04:25:41;100463.28;;;4.23;68.29
66385;BME280;53426;55.872;37.462;2024-03-02T04:28:07;100470.94;;;4.28;67.38
66385;BME280;53426;55.872;37.462;2024-03-02T04:30:33;100434.38;;;4.04;67.75
66385;BME280;53426;55.872;37.462;2024-03-02T04:32:59;100430.25;;;3.99;67.29
66385;BME280;53426;55.872;37.462;2024-03-02T04:35:31;100478.59;;;4.32;67.97
66385;BME280;53426;55.872;37.462;2024-03-02T04:37:57;100385.22;;;3.70;67.58
66385;BME280;53426;55.872;37.462;2024-03-02T04:40:23;100430.91;;;3.84;67.26
66385;BME280;53426;55.872;37.462;2024-03-02T04:42:49;100441.00;;;3.72;68.30
66385;BME280;53426;55.872;37.462;2024-03-02T04:45:15;100485.72;;;3.88;68.54
66385;BME280;53426;55.872;37.462;2024-03-02T04:47:40;100432.47;;;3.47;69.40
66385;BME280;53426;55.872;37.462;2024-03-02T04:50:07;100407.00;;;3.29;69.21
66385;BME280;53426;55.872;37.462;2024-03-02T04:52:33;100454.22;;;3.69;69.60
66385;BME280;53426;55.872;37.462;2024-03-02T04:54:59;100487.41;;;3.91;69.38
66385;BME280;53426;55.872;37.462;2024-03-02T04:57:44;100466.22;;;3.75;69.37
66385;BME280;53426;55.872;37.462;2024-03-02T05:00:11;100431.41;;;3.51;69.54
66385;BME280;53426;55.872;37.462;2024-03-02T05:02:39;100473.88;;;3.79;69.44
66385;BME280;53426;55.872;37.462;2024-03-02T05:05:06;100486.47;;;3.92;68.91
66385;BME280;53426;55.872;37.462;2024-03-02T05:07:33;100486.19;;;3.77;69.10
66385;BME280;53426;55.872;37.462;2024-03-02T05:10:20;100450.22;;;3.61;68.97
66385;BME280;53426;55.872;37.462;2024-03-02T05:12:48;100465.41;;;3.73;69.29
66385;BME280;53426;55.872;37.462;2024-03-02T05:15:25;100456.91;;;3.68;69.32
66385;BME280;53426;55.872;37.462;2024-03-02T05:17:51;100480.13;;;3.97;69.15
66385;BME280;53426;55.872;37.462;2024-03-02T05:20:17;100482.56;;;4.02;68.80
66385;BME280;53426;55.872;37.462;2024-03-02T05:22:43;100430.00;;;3.64;69.18
66385;BME280;53426;55.872;37.462;2024-03-02T05:25:09;100411.63;;;3.44;68.60
66385;BME280;53426;55.872;37.462;2024-03-02T05:27:37;100469.84;;;3.71;69.09
66385;BME280;53426;55.872;37.462;2024-03-02T05:30:28;100472.38;;;3.74;69.15
66385;BME280;53426;55.872;37.462;2024-03-02T05:32:54;100471.94;;;3.85;69.26
66385;BME280;53426;55.872;37.462;2024-03-02T05:35:20;100497.69;;;4.15;68.59
66385;BME280;53426;55.872;37.462;2024-03-02T05:37:46;100471.41;;;4.17;68.22
66385;BME280;53426;55.872;37.462;2024-03-02T05:40:12;100450.19;;;4.03;68.27
66385;BME280;53426;55.872;37.462;2024-03-02T05:42:38;100493.19;;;4.19;67.72
66385;BME280;53426;55.872;37.462;2024-03-02T05:45:06;100493.88;;;4.22;67.96
66385;BME280;53426;55.872;37.462;2024-03-02T05:47:32;100479.22;;;4.18;67.70
66385;BME280;53426;55.872;37.462;2024-03-02T05:49:58;100475.94;;;4.13;67.37
66385;BME280;53426;55.872;37.462;2024-03-02T05:52:24;100426.53;;;3.84;67.52
66385;BME280;53426;55.872;37.462;2024-03-02T05:54:50;100516.28;;;4.09;67.16
66385;BME280;53426;55.872;37.462;2024-03-02T05:57:22;100462.59;;;3.77;67.84
66385;BME280;53426;55.872;37.462;2024-03-02T06:00:07;100505.22;;;4.03;68.12
66385;BME280;53426;55.872;37.462;2024-03-02T06:02:41;100493.44;;;3.93;68.53
66385;BME280;53426;55.872;37.462;2024-03-02T06:05:07;100457.50;;;3.74;67.81
66385;BME280;53426;55.872;37.462;2024-03-02T06:07:35;100466.88;;;3.80;68.32
66385;BME280;53426;55.872;37.462;2024-03-02T06:10:01;100414.78;;;3.52;68.68
66385;BME280;53426;55.872;37.462;2024-03-02T06:12:55;100496.38;;;4.26;68.02
66385;BME280;53426;55.872;37.462;2024-03-02T06:15:21;100387.50;;;3.58;67.36
66385;BME280;53426;55.872;37.462;2024-03-02T06:17:47;100440.44;;;3.86;67.09
66385;BME280;53426;55.872;37.462;2024-03-02T06:20:13;100364.97;;;3.12;67.41
66385;BME280;53426;55.872;37.462;2024-03-02T06:23:04;100505.28;;;4.01;68.22
66385;BME280;53426;55.872;37.462;2024-03-02T06:25:51;100436.38;;;3.37;68.28
66385;BME280;53426;55.872;37.462;2024-03-02T06:28:17;100448.34;;;3.43;68.61
66385;BME280;53426;55.872;37.462;2024-03-02T06:30:43;100509.16;;;3.93;69.06
66385;BME280;53426;55.872;37.462;2024-03-02T06:33:09;100428.84;;;3.50;68.64
66385;BME280;53426;55.872;37.462;2024-03-02T06:35:35;100502.81;;;3.76;68.67
66385;BME280;53426;55.872;37.462;2024-03-02T06:38:01;100464.47;;;3.54;68.92
66385;BME280;53426;55.872;37.462;2024-03-02T06:40:27;100515.41;;;3.89;68.80
66385;BME280;53426;55.872;37.462;2024-03-02T06:46:48;100528.56;;;4.29;68.61
66385;BME280;53426;55.872;37.462;2024-03-02T06:49:14;100406.69;;;3.78;67.98
66385;BME280;53426;55.872;37.462;2024-03-02T06:51:44;100370.16;;;3.75;66.38
66385;BME280;53426;55.872;37.462;2024-03-02T06:54:21;100511.38;;;4.62;66.61
66385;BME280;53426;55.872;37.462;2024-03-02T06:56:47;100515.19;;;4.55;66.89
66385;BME280;53426;55.872;37.462;2024-03-02T06:59:13;100338.97;;;3.49;66.38
66385;BME280;53426;55.872;37.462;2024-03-02T07:01:39;100451.31;;;4.17;66.33
66385;BME280;53426;55.872;37.462;2024-03-02T07:04:27;100413.50;;;4.03;66.65
66385;BME280;53426;55.872;37.462;2024-03-02T07:06:52;100442.81;;;4.31;66.30
66385;BME280;53426;55.872;37.462;2024-03-02T07:13:15;100363.03;;;4.18;64.60
66385;BME280;53426;55.872;37.462;2024-03-02T07:15:41;100512.41;;;5.16;65.02
66385;BME280;53426;55.872;37.462;2024-03-02T07:21:21;100466.66;;;5.03;64.01
66385;BME280;53426;55.872;37.462;2024-03-02T07:24:07;100298.53;;;3.56;64.39
66385;BME280;53426;55.872;37.462;2024-03-02T07:26:36;100367.84;;;3.88;64.96
66385;BME280;53426;55.872;37.462;2024-03-02T07:29:05;100519.38;;;4.59;65.96
66385;BME280;53426;55.872;37.462;2024-03-02T07:32:02;100520.47;;;4.54;65.95
66385;BME280;53426;55.872;37.462;2024-03-02T07:34:36;100293.19;;;2.97;66.64
66385;BME280;53426;55.872;37.462;2024-03-02T07:37:04;100533.06;;;4.26;66.83
66385;BME280;53426;55.872;37.462;2024-03-02T07:39:41;100533.59;;;4.34;67.31
66385;BME280;53426;55.872;37.462;2024-03-02T07:42:08;100543.44;;;4.29;67.16
66385;BME280;53426;55.872;37.462;2024-03-02T07:44:41;100512.22;;;4.43;66.88
66385;BME280;53426;55.872;37.462;2024-03-02T07:47:15;100492.50;;;4.54;66.31
66385;BME280;53426;55.872;37.462;2024-03-02T07:49:44;100508.72;;;4.83;65.87
66385;BME280;53426;55.872;37.462;2024-03-02T07:52:13;100488.69;;;4.80;65.48
66385;BME280;53426;55.872;37.462;2024-03-02T07:54:42;100505.31;;;4.99;65.68
66385;BME280;53426;55.872;37.462;2024-03-02T07:57:09;100504.47;;;4.99;65.03
66385;BME280;53426;55.872;37.462;2024-03-02T07:59:36;100504.75;;;5.12;64.26
66385;BME280;53426;55.872;37.462;2024-03-02T08:02:04;100476.09;;;4.88;64.26
66385;BME280;53426;55.872;37.462;2024-03-02T08:04:36;100496.16;;;5.08;64.63
66385;BME280;53426;55.872;37.462;2024-03-02T08:07:03;100506.75;;;5.07;64.95
66385;BME280;53426;55.872;37.462;2024-03-02T08:09:31;100501.84;;;4.99;64.89
66385;BME280;53426;55.872;37.462;2024-03-02T08:11:58;100411.06;;;4.57;64.46
66385;BME280;53426;55.872;37.462;2024-03-02T08:14:26;100502.19;;;4.91;64.41
66385;BME280;53426;55.872;37.462;2024-03-02T08:16:58;100500.63;;;4.87;65.04
66385;BME280;53426;55.872;37.462;2024-03-02T08:19:27;100418.41;;;4.31;65.20
66385;BME280;53426;55.872;37.462;2024-03-02T08:21:53;100457.41;;;4.76;65.00
66385;BME280;53426;55.872;37.462;2024-03-02T08:24:20;100471.69;;;4.89;64.57
66385;BME280;53426;55.872;37.462;2024-03-02T08:26:46;100499.94;;;5.21;64.81
66385;BME280;53426;55.872;37.462;2024-03-02T08:29:12;100467.28;;;5.27;63.55
66385;BME280;53426;55.872;37.462;2024-03-02T08:31:42;100441.59;;;5.15;62.59
66385;BME280;53426;55.872;37.462;2024-03-02T08:34:12;100494.69;;;5.40;62.96
66385;BME280;53426;55.872;37.462;2024-03-02T08:36:41;100511.09;;;5.62;62.93
66385;BME280;53426;55.872;37.462;2024-03-02T08:39:08;100507.75;;;5.59;62.31
66385;BME280;53426;55.872;37.462;2024-03-02T08:41:50;100420.25;;;5.22;61.88
66385;BME280;53426;55.872;37.462;2024-03-02T08:44:16;100469.63;;;5.33;61.37
66385;BME280;53426;55.872;37.462;2024-03-02T08:46:42;100512.50;;;5.33;62.69
66385;BME280;53426;55.872;37.462;2024-03-02T08:49:10;100415.97;;;4.84;62.03
66385;BME280;53426;55.872;37.462;2024-03-02T08:51:36;100464.66;;;5.27;61.85
66385;BME280;53426;55.872;37.462;2024-03-02T08:54:27;100496.78;;;5.68;61.63
66385;BME280;53426;55.872;37.462;2024-03-02T08:56:53;100473.09;;;5.33;61.48
66385;BME280;53426;55.872;37.462;2024-03-02T08:59:20;100401.47;;;4.94;61.74
66385;BME280;53426;55.872;37.462;2024-03-02T09:01:46;100462.03;;;5.08;61.97
66385;BME280;53426;55.872;37.462;2024-03-02T09:04:12;100446.16;;;5.11;61.83
66385;BME280;53426;55.872;37.462;2024-03-02T09:06:58;100496.28;;;5.61;61.78
66385;BME280;53426;55.872;37.462;2024-03-02T09:09:26;100430.13;;;5.17;61.10
66385;BME280;53426;55.872;37.462;2024-03-02T09:12:06;100396.97;;;5.15;60.89
66385;BME280;53426;55.872;37.462;2024-03-02T09:14:32;100423.97;;;5.35;61.09
66385;BME280;53426;55.872;37.462;2024-03-02T09:17:01;100403.44;;;5.07;60.90
66385;BME280;53426;55.872;37.462;2024-03-02T09:19:26;100461.81;;;5.67;60.64
66385;BME280;53426;55.872;37.462;2024-03-02T09:21:53;100502.59;;;5.93;60.88
66385;BME280;53426;55.872;37.462;2024-03-02T09:24:21;100416.56;;;5.43;60.36
66385;BME280;53426;55.872;37.462;2024-03-02T09:26:47;100352.16;;;5.36;60.30
66385;BME280;53426;55.872;37.462;2024-03-02T09:29:13;100376.78;;;5.51;59.86
66385;BME280;53426;55.872;37.462;2024-03-02T09:31:43;100467.03;;;6.20;59.54
66385;BME280;53426;55.872;37.462;2024-03-02T09:34:12;100493.41;;;6.19;58.65
66385;BME280;53426;55.872;37.462;2024-03-02T09:37:05;100485.09;;;6.44;58.90
66385;BME280;53426;55.872;37.462;2024-03-02T09:39:39;100356.31;;;5.58;58.16
66385;BME280;53426;55.872;37.462;2024-03-02T09:42:09;100428.00;;;6.46;56.87
66385;BME280;53426;55.872;37.462;2024-03-02T09:44:36;100362.50;;;6.57;56.51
66385;BME280;53426;55.872;37.462;2024-03-02T09:53:34;100468.16;;;8.93;51.48
66385;BME280;53426;55.872;37.462;2024-03-02T09:56:09;100385.47;;;7.77;52.60
66385;BME280;53426;55.872;37.462;2024-03-02T09:58:35;100300.31;;;7.47;52.03
66385;BME280;53426;55.872;37.462;2024-03-02T10:01:06;100453.50;;;8.30;51.64
66385;BME280;53426;55.872;37.462;2024-03-02T10:03:36;100422.44;;;7.76;52.39
66385;BME280;53426;55.872;37.462;2024-03-02T10:06:19;100469.78;;;7.93;53.70
66385;BME280;53426;55.872;37.462;2024-03-02T10:08:45;100462.78;;;7.62;53.84
66385;BME280;53426;55.872;37.462;2024-03-02T10:11:29;100428.91;;;7.40;54.71
66385;BME280;53426;55.872;37.462;2024-03-02T10:14:16;100470.16;;;7.71;53.91
66385;BME280;53426;55.872;37.462;2024-03-02T10:19:29;100466.94;;;7.66;54.92
66385;BME280;53426;55.872;37.462;2024-03-02T10:21:59;100352.06;;;6.71;54.27
66385;BME280;53426;55.872;37.462;2024-03-02T10:24:41;100482.78;;;7.35;54.93
66385;BME280;53426;55.872;37.462;2024-03-02T10:27:18;100380.78;;;6.60;54.77
66385;BME280;53426;55.872;37.462;2024-03-02T10:29:47;100470.03;;;7.11;55.06
66385;BME280;53426;55.872;37.462;2024-03-02T10:32:15;100481.94;;;6.87;55.80
66385;BME280;53426;55.872;37.462;2024-03-02T10:34:44;100409.81;;;6.08;56.42
66385;BME280;53426;55.872;37.462;2024-03-02T10:37:11;100493.41;;;6.36;57.42
66385;BME280;53426;55.872;37.462;2024-03-02T10:39:57;100416.91;;;6.06;57.09
66385;BME280;53426;55.872;37.462;2024-03-02T10:42:33;100391.34;;;5.93;56.82
66385;BME280;53426;55.872;37.462;2024-03-02T10:45:02;100422.88;;;6.10;56.55
66385;BME280;53426;55.872;37.462;2024-03-02T10:47:29;100456.13;;;6.61;56.27
66385;BME280;53426;55.872;37.462;2024-03-02T10:49:58;100467.34;;;6.64;56.30
66385;BME280;53426;55.872;37.462;2024-03-02T10:52:25;100486.94;;;7.07;55.81
66385;BME280;53426;55.872;37.462;2024-03-02T10:54:51;100481.84;;;7.04;55.23
66385;BME280;53426;55.872;37.462;2024-03-02T11:04:54;100258.94;;;5.78;54.88
66385;BME280;53426;55.872;37.462;2024-03-02T11:08:06;100522.97;;;7.07;55.02
66385;BME280;53426;55.872;37.462;2024-03-02T11:10:17;100491.88;;;7.13;55.16
66385;BME280;53426;55.872;37.462;2024-03-02T11:13:11;100486.19;;;7.21;55.58
66385;BME280;53426;55.872;37.462;2024-03-02T11:15:40;100369.75;;;6.20;55.31
66385;BME280;53426;55.872;37.462;2024-03-02T11:18:07;100263.47;;;5.24;56.03
66385;BME280;53426;55.872;37.462;2024-03-02T11:20:38;100439.00;;;6.37;56.51
66385;BME280;53426;55.872;37.462;2024-03-02T11:23:07;100441.03;;;6.32;56.70
66385;BME280;53426;55.872;37.462;2024-03-02T11:25:34;100481.94;;;6.54;56.34
66385;BME280;53426;55.872;37.462;2024-03-02T11:28:02;100450.63;;;6.33;56.51
66385;BME280;53426;55.872;37.462;2024-03-02T11:32:59;100369.75;;;5.69;57.71
66385;BME280;53426;55.872;37.462;2024-03-02T11:35:28;100401.00;;;5.75;56.95
66385;BME280;53426;55.872;37.462;2024-03-02T11:37:54;100338.84;;;5.57;57.43
66385;BME280;53426;55.872;37.462;2024-03-02T11:40:27;100387.31;;;5.85;57.18
66385;BME280;53426;55.872;37.462;2024-03-02T11:43:05;100471.38;;;6.21;56.75
66385;BME280;53426;55.872;37.462;2024-03-02T11:45:31;100462.22;;;6.11;57.52
66385;BME280;53426;55.872;37.462;2024-03-02T11:48:00;100457.44;;;6.02;57.67
66385;BME280;53426;55.872;37.462;2024-03-02T11:53:09;100331.53;;;5.46;57.21
66385;BME280;53426;55.872;37.462;2024-03-02T11:55:37;100410.13;;;6.02;57.18
66385;BME280;53426;55.872;37.462;2024-03-02T11:58:07;100248.50;;;4.92;56.88
66385;BME280;53426;55.872;37.462;2024-03-02T12:00:33;100428.81;;;5.79;57.46
66385;BME280;53426;55.872;37.462;2024-03-02T12:03:04;100435.31;;;5.72;58.02
66385;BME280;53426;55.872;37.462;2024-03-02T12:05:31;100418.13;;;5.47;58.40
66385;BME280;53426;55.872;37.462;2024-03-02T12:08:08;100363.72;;;5.15;59.00
66385;BME280;53426;55.872;37.462;2024-03-02T12:10:37;100344.25;;;5.19;58.26
66385;BME280;53426;55.872;37.462;2024-03-02T12:13:06;100390.31;;;5.43;58.57
66385;BME280;53426;55.872;37.462;2024-03-02T12:15:34;100203.97;;;4.37;58.24
66385;BME280;53426;55.872;37.462;2024-03-02T12:18:26;100402.13;;;4.99;59.04
66385;BME280;53426;55.872;37.462;2024-03-02T12:21:19;100462.53;;;5.52;59.37
66385;BME280;53426;55.872;37.462;2024-03-02T12:23:45;100362.13;;;4.75;59.48
66385;BME280;53426;55.872;37.462;2024-03-02T12:26:11;100397.31;;;4.71;60.43
66385;BME280;53426;55.872;37.462;2024-03-02T12:29:00;100417.06;;;4.59;60.29
66385;BME280;53426;55.872;37.462;2024-03-02T12:38:43;100469.50;;;4.80;61.12
66385;BME280;53426;55.872;37.462;2024-03-02T12:49:11;100381.13;;;4.04;61.91
66385;BME280;53426;55.872;37.462;2024-03-02T12:56:04;100273.28;;;3.35;61.68
66385;BME280;53426;55.872;37.462;2024-03-02T12:58:39;100243.03;;;3.28;61.68
66385;BME280;53426;55.872;37.462;2024-03-02T13:01:07;100395.63;;;4.12;61.73
66385;BME280;53426;55.872;37.462;2024-03-02T13:07:07;100339.63;;;3.95;61.29
66385;BME280;53426;55.872;37.462;2024-03-02T13:09:42;100475.72;;;4.77;61.06
66385;BME280;53426;55.872;37.462;2024-03-02T13:12:08;100391.50;;;4.26;61.03
66385;BME280;53426;55.872;37.462;2024-03-02T13:14:43;100459.03;;;4.59;61.54
66385;BME280;53426;55.872;37.462;2024-03-02T13:17:09;100356.00;;;3.79;61.50
66385;BME280;53426;55.872;37.462;2024-03-02T13:19:35;100496.06;;;4.33;62.10
66385;BME280;53426;55.872;37.462;2024-03-02T13:22:01;100386.00;;;3.72;61.96
66385;BME280;53426;55.872;37.462;2024-03-02T13:24:30;100344.34;;;3.26;61.79
66385;BME280;53426;55.872;37.462;2024-03-02T13:26:57;100366.34;;;3.42;62.64
66385;BME280;53426;55.872;37.462;2024-03-02T13:29:24;100471.78;;;3.88;63.17
66385;BME280;53426;55.872;37.462;2024-03-02T13:32:09;100481.91;;;4.17;62.42
66385;BME280;53426;55.872;37.462;2024-03-02T13:35:03;100497.75;;;4.34;62.39
66385;BME280;53426;55.872;37.462;2024-03-02T13:37:30;100394.69;;;3.53;61.59
66385;BME280;53426;55.872;37.462;2024-03-02T13:40:25;100489.81;;;4.15;62.29
66385;BME280;53426;55.872;37.462;2024-03-02T13:42:54;100514.72;;;4.05;62.07
66385;BME280;53426;55.872;37.462;2024-03-02T13:45:22;100490.66;;;3.96;61.69
66385;BME280;53426;55.872;37.462;2024-03-02T13:48:18;100490.63;;;3.97;61.79
66385;BME280;53426;55.872;37.462;2024-03-02T13:50:47;100384.38;;;3.28;61.62
66385;BME280;53426;55.872;37.462;2024-03-02T13:53:13;100393.94;;;3.29;62.23
66385;BME280;53426;55.872;37.462;2024-03-02T13:55:48;100369.03;;;3.19;61.33
66385;BME280;53426;55.872;37.462;2024-03-02T13:58:14;100286.28;;;2.52;62.04
66385;BME280;53426;55.872;37.462;2024-03-02T14:01:12;100493.50;;;4.11;61.46
66385;BME280;53426;55.872;37.462;2024-03-02T14:04:23;100349.50;;;3.27;61.38
66385;BME280;53426;55.872;37.462;2024-03-02T14:11:42;100375.75;;;2.82;60.96
66385;BME280;53426;55.872;37.462;2024-03-02T14:14:08;100417.72;;;3.23;61.20
66385;BME280;53426;55.872;37.462;2024-03-02T14:16:34;100209.34;;;1.93;60.90
66385;BME280;53426;55.872;37.462;2024-03-02T14:19:06;100440.50;;;3.21;61.13
66385;BME280;53426;55.872;37.462;2024-03-02T14:21:35;100347.22;;;2.76;60.92